createdAt,value
2019-06-15T00:01:48.489Z,3.30
2019-06-15T00:04:51.942Z,4.23
2019-06-15T00:07:55.275Z,5.47
2019-06-15T00:10:58.732Z,4.50
2019-06-15T00:14:03.309Z,6.17
2019-06-15T00:17:06.703Z,5.70
2019-06-15T00:20:11.166Z,4.00
2019-06-15T00:23:15.023Z,3.47
2019-06-15T00:26:18.202Z,6.63
2019-06-15T00:29:21.323Z,5.73
2019-06-15T00:32:24.502Z,5.57
2019-06-15T00:35:27.624Z,9.10
2019-06-15T00:38:30.760Z,4.50
2019-06-15T00:41:33.973Z,4.33
2019-06-15T00:44:37.019Z,8.77
2019-06-15T00:47:40.465Z,9.53
2019-06-15T00:50:45.107Z,7.00
2019-06-15T00:53:48.526Z,4.90
2019-06-15T00:56:51.587Z,6.10
2019-06-15T00:59:55.398Z,5.30
2019-06-15T01:02:58.446Z,4.97
2019-06-15T01:06:02.010Z,6.43
2019-06-15T01:09:06.427Z,4.70
2019-06-15T01:12:10.086Z,2.60
2019-06-15T01:15:13.904Z,3.30
2019-06-15T01:18:17.477Z,5.87
2019-06-15T01:21:21.066Z,3.80
2019-06-15T01:24:24.578Z,3.70
2019-06-15T01:27:27.926Z,3.93
2019-06-15T01:30:31.591Z,2.23
2019-06-15T01:33:36.022Z,4.33
2019-06-15T01:36:40.073Z,2.47
2019-06-15T01:39:43.690Z,3.30
2019-06-15T01:42:46.905Z,2.87
2019-06-15T01:45:50.926Z,3.80
2019-06-15T01:48:54.343Z,3.27
2019-06-15T01:51:57.803Z,3.97
2019-06-15T01:55:01.554Z,3.80
2019-06-15T01:58:33.692Z,5.20
2019-06-15T02:01:37.308Z,2.80
2019-06-15T02:04:40.893Z,2.67
2019-06-15T02:07:43.964Z,4.20
2019-06-15T02:10:47.160Z,2.40
2019-06-15T02:13:50.508Z,6.57
2019-06-15T02:16:54.926Z,5.90
2019-06-15T02:19:59.813Z,3.07
2019-06-15T02:23:03.670Z,4.20
2019-06-15T02:26:06.775Z,3.27
2019-06-15T02:29:10.337Z,2.00
2019-06-15T02:32:13.443Z,3.40
2019-06-15T02:35:17.140Z,6.63
2019-06-15T02:38:20.338Z,6.10
2019-06-15T02:41:25.805Z,2.17
2019-06-15T02:44:34.997Z,5.50
2019-06-15T02:47:46.819Z,2.50
2019-06-15T02:50:53.601Z,3.17
2019-06-15T02:53:57.203Z,3.83
2019-06-15T02:57:01.949Z,3.13
2019-06-15T03:00:11.389Z,2.60
2019-06-15T03:03:18.825Z,4.00
2019-06-15T03:06:24.980Z,8.00
2019-06-15T03:09:39.415Z,3.10
2019-06-15T03:12:44.213Z,2.77
2019-06-15T03:15:54.940Z,2.97
2019-06-15T03:19:09.915Z,3.13
2019-06-15T03:22:23.690Z,3.90
2019-06-15T03:25:35.655Z,2.40
2019-06-15T03:28:44.308Z,2.60
2019-06-15T03:31:48.035Z,2.03
2019-06-15T03:34:51.941Z,2.97
2019-06-15T03:37:56.339Z,3.10
2019-06-15T03:41:05.059Z,3.07
2019-06-15T03:44:09.962Z,3.23
2019-06-15T03:47:14.667Z,5.50
2019-06-15T03:50:19.161Z,4.20
2019-06-15T03:53:28.063Z,3.40
2019-06-15T03:56:41.219Z,3.93
2019-06-15T03:59:54.176Z,3.57
2019-06-15T04:03:02.600Z,10.33
2019-06-15T04:06:09.297Z,4.13
2019-06-15T04:09:18.005Z,3.50
2019-06-15T04:12:21.602Z,3.20
2019-06-15T04:15:29.924Z,10.83
2019-06-15T04:18:33.750Z,3.87
2019-06-15T04:21:39.306Z,7.57
2019-06-15T04:24:44.510Z,8.10
2019-06-15T04:27:53.059Z,6.63
2019-06-15T04:30:58.023Z,4.23
2019-06-15T04:46:20.627Z,8.30
2019-06-15T04:49:24.774Z,8.07
2019-06-15T04:52:28.427Z,17.40
2019-06-15T04:55:31.878Z,9.07
2019-06-15T04:58:35.261Z,10.47
2019-06-15T05:01:39.805Z,7.30
2019-06-15T05:04:43.039Z,6.40
2019-06-15T05:07:46.298Z,7.63
2019-06-15T05:10:49.737Z,16.47
2019-06-15T05:13:53.494Z,12.47
2019-06-15T05:16:56.605Z,12.80
2019-06-15T05:20:00.113Z,9.80
2019-06-15T05:23:03.784Z,12.83
2019-06-15T05:26:06.829Z,7.13
2019-06-15T05:29:10.027Z,7.40
2019-06-15T05:32:13.440Z,7.77
2019-06-15T05:35:17.144Z,10.10
2019-06-15T05:38:20.610Z,8.90
2019-06-15T05:41:24.183Z,11.20
2019-06-15T05:44:27.845Z,4.37
2019-06-15T05:47:32.074Z,14.30
2019-06-15T05:50:37.250Z,6.97
2019-06-15T05:53:41.490Z,10.03
2019-06-15T05:56:45.933Z,7.10
2019-06-15T05:59:51.344Z,9.50
2019-06-15T06:02:55.252Z,9.73
2019-06-15T06:06:00.278Z,12.63
2019-06-15T06:09:05.478Z,14.60
2019-06-15T06:12:25.311Z,19.20
2019-06-15T06:15:33.203Z,18.53
2019-06-15T06:18:41.708Z,22.33
2019-06-15T06:29:36.278Z,27.45
2019-06-15T06:32:44.935Z,21.07
2019-06-15T06:35:48.655Z,17.70
2019-06-15T06:38:53.104Z,18.50
2019-06-15T06:41:57.614Z,25.40
2019-06-15T06:45:02.083Z,19.50
2019-06-15T06:48:05.992Z,24.07
2019-06-15T06:51:09.327Z,21.57
2019-06-15T06:54:12.705Z,18.07
2019-06-15T06:57:16.071Z,17.40
2019-06-15T07:00:24.876Z,18.00
2019-06-15T07:03:38.385Z,22.87
2019-06-15T07:06:41.900Z,15.83
2019-06-15T07:09:45.399Z,14.77
2019-06-15T07:12:48.949Z,19.03
2019-06-15T07:15:53.070Z,15.50
2019-06-15T07:18:56.899Z,25.03
2019-06-15T07:22:02.265Z,19.33
2019-06-15T07:25:06.259Z,21.70
2019-06-15T07:28:09.386Z,21.73
2019-06-15T07:31:12.527Z,24.53
2019-06-15T07:34:15.960Z,20.17
2019-06-15T07:37:19.228Z,24.80
2019-06-15T07:40:22.671Z,20.57
2019-06-15T07:43:26.041Z,31.83
2019-06-15T07:46:29.481Z,33.90
2019-06-15T07:49:32.713Z,35.40
2019-06-15T07:52:35.983Z,39.20
2019-06-15T07:55:40.081Z,38.13
2019-06-15T07:58:43.262Z,32.87
2019-06-15T08:01:46.756Z,32.37
2019-06-15T08:04:50.060Z,30.60
2019-06-15T08:07:53.680Z,26.30
2019-06-15T08:10:56.880Z,20.70
2019-06-15T08:14:00.145Z,17.70
2019-06-15T08:17:03.198Z,16.57
2019-06-15T08:20:08.851Z,13.17
2019-06-15T08:23:11.942Z,10.47
2019-06-15T08:26:15.272Z,14.03
2019-06-15T08:29:18.579Z,10.90
2019-06-15T08:32:21.833Z,10.60
2019-06-15T08:35:25.033Z,10.53
2019-06-15T08:38:29.473Z,6.73
2019-06-15T08:41:32.750Z,6.40
2019-06-15T08:44:37.817Z,8.73
2019-06-15T08:47:41.740Z,4.23
2019-06-15T08:50:45.775Z,6.67
2019-06-15T08:53:49.645Z,5.50
2019-06-15T08:56:52.998Z,4.70
2019-06-15T08:59:58.667Z,4.77
2019-06-15T09:03:03.193Z,5.30
2019-06-15T09:06:06.668Z,5.80
2019-06-15T09:09:09.948Z,3.97
2019-06-15T09:12:13.193Z,3.70
2019-06-15T09:15:31.671Z,4.43
2019-06-15T09:18:35.005Z,5.03
2019-06-15T09:21:38.324Z,4.93
2019-06-15T09:24:42.169Z,11.13
2019-06-15T09:27:46.054Z,2.43
2019-06-15T09:30:49.963Z,4.77
2019-06-15T09:33:53.339Z,1.70
2019-06-15T09:36:56.850Z,11.30
2019-06-15T09:40:00.414Z,3.07
2019-06-15T09:43:08.216Z,1.80
2019-06-15T09:46:11.799Z,2.93
2019-06-15T09:49:16.910Z,1.87
2019-06-15T09:52:20.237Z,3.23
2019-06-15T09:55:24.112Z,4.77
2019-06-15T09:58:28.090Z,1.03
2019-06-15T10:01:31.622Z,4.90
2019-06-15T10:04:35.133Z,2.13
2019-06-15T10:07:40.824Z,1.43
2019-06-15T10:10:44.350Z,1.43
2019-06-15T10:13:48.056Z,1.70
2019-06-15T10:16:53.119Z,2.83
2019-06-15T10:19:57.433Z,1.80
2019-06-15T10:23:01.482Z,1.30
2019-06-15T10:26:05.764Z,1.97
2019-06-15T10:29:09.321Z,3.90
2019-06-15T10:32:13.029Z,1.00
2019-06-15T10:35:21.661Z,2.07
2019-06-15T10:38:25.087Z,2.40
2019-06-15T10:41:28.578Z,2.20
2019-06-15T10:44:32.588Z,10.23
2019-06-15T10:47:36.305Z,2.77
2019-06-15T10:50:40.250Z,3.77
2019-06-15T10:53:43.685Z,6.37
2019-06-15T10:56:47.219Z,4.47
2019-06-15T10:59:57.232Z,5.50
2019-06-15T11:02:57.197Z,3.37
2019-06-15T11:06:01.089Z,4.97
2019-06-15T11:09:07.748Z,4.03
2019-06-15T11:12:16.605Z,4.80
2019-06-15T11:15:20.800Z,5.37
2019-06-15T11:18:52.401Z,4.43
2019-06-15T11:22:00.685Z,5.20
2019-06-15T11:25:10.367Z,4.33
2019-06-15T11:28:20.580Z,5.80
2019-06-15T11:31:30.925Z,3.67
2019-06-15T11:34:52.898Z,3.20
2019-06-15T11:37:57.014Z,7.40
2019-06-15T11:41:18.991Z,2.57
2019-06-15T11:44:28.898Z,2.50
2019-06-15T11:47:32.917Z,2.10
2019-06-15T11:50:44.832Z,1.90
2019-06-15T11:53:49.583Z,2.10
2019-06-15T11:56:53.510Z,1.47
2019-06-15T11:59:57.185Z,1.83
2019-06-15T12:03:01.307Z,3.23
2019-06-15T12:06:07.055Z,1.20
2019-06-15T12:09:12.931Z,1.93
2019-06-15T12:12:20.514Z,4.10
2019-06-15T12:15:27.355Z,6.93
2019-06-15T12:18:31.057Z,4.70
2019-06-15T12:21:35.422Z,1.30
2019-06-15T12:24:41.545Z,1.77
2019-06-15T12:27:46.037Z,1.30
2019-06-15T12:30:49.988Z,2.83
2019-06-15T12:33:53.918Z,1.10
2019-06-15T12:36:58.467Z,1.33
2019-06-15T12:40:02.829Z,1.17
2019-06-15T12:43:06.567Z,1.47
2019-06-15T12:46:11.033Z,1.80
2019-06-15T12:49:15.214Z,0.80
2019-06-15T12:52:19.723Z,2.20
2019-06-15T12:55:23.661Z,1.73
2019-06-15T12:58:27.598Z,1.50
2019-06-15T13:01:31.324Z,2.17
2019-06-15T13:04:35.183Z,1.77
2019-06-15T13:07:39.839Z,1.47
2019-06-15T13:10:44.351Z,1.53
2019-06-15T13:13:48.691Z,1.70
2019-06-15T13:16:52.928Z,3.53
2019-06-15T13:19:57.337Z,1.67
2019-06-15T13:23:01.250Z,1.73
2019-06-15T13:26:04.947Z,1.80
2019-06-15T13:29:16.085Z,5.07
2019-06-15T13:32:20.888Z,1.77
2019-06-15T13:35:24.561Z,3.13
2019-06-15T13:38:28.431Z,2.13
2019-06-15T13:41:32.187Z,1.23
2019-06-15T13:44:36.571Z,2.40
2019-06-15T13:47:40.293Z,1.40
2019-06-15T13:50:44.576Z,2.50
2019-06-15T13:53:48.971Z,1.73
2019-06-15T13:56:52.905Z,6.20
2019-06-15T13:59:56.493Z,1.37
2019-06-15T14:03:00.404Z,2.13
2019-06-15T14:06:04.441Z,2.47
2019-06-15T14:09:08.348Z,1.43
2019-06-15T14:12:12.597Z,3.10
2019-06-15T14:15:17.644Z,4.40
2019-06-15T14:18:21.407Z,1.60
2019-06-15T14:21:25.465Z,3.30
2019-06-15T14:24:29.590Z,3.40
2019-06-15T14:27:33.539Z,3.53
2019-06-15T14:30:37.358Z,2.50
2019-06-15T14:33:41.802Z,4.73
2019-06-15T14:36:45.665Z,1.90
2019-06-15T14:39:49.900Z,1.47
2019-06-15T14:42:55.248Z,2.93
2019-06-15T14:46:00.071Z,4.80
2019-06-15T14:49:04.683Z,1.53
2019-06-15T14:52:08.682Z,1.13
2019-06-15T14:55:13.102Z,1.80
2019-06-15T14:58:17.301Z,1.80
2019-06-15T15:01:21.448Z,1.50
2019-06-15T15:04:26.616Z,1.93
2019-06-15T15:07:32.600Z,1.40
2019-06-15T15:10:42.202Z,1.63
2019-06-15T15:13:47.120Z,7.67
2019-06-15T15:16:51.451Z,2.97
2019-06-15T15:19:57.301Z,2.53
2019-06-15T15:23:02.906Z,2.10
2019-06-15T15:26:11.146Z,3.33
2019-06-15T15:29:16.321Z,2.13
2019-06-15T15:32:27.431Z,1.47
2019-06-15T15:35:29.154Z,2.03
2019-06-15T15:38:36.187Z,5.43
2019-06-15T15:41:43.822Z,2.73
2019-06-15T15:44:47.703Z,1.47
2019-06-15T15:47:51.417Z,3.90
2019-06-15T15:50:57.253Z,1.80
2019-06-15T15:54:00.461Z,1.20
2019-06-15T15:57:06.345Z,1.70
2019-06-15T16:00:12.743Z,1.63
2019-06-15T16:03:16.562Z,4.23
2019-06-15T16:06:20.425Z,2.20
2019-06-15T16:09:26.957Z,1.90
2019-06-15T16:12:29.596Z,2.03
2019-06-15T16:15:33.328Z,1.67
2019-06-15T16:18:36.900Z,2.33
2019-06-15T16:21:40.589Z,2.13
2019-06-15T16:24:47.887Z,2.67
2019-06-15T16:27:53.082Z,2.00
2019-06-15T16:31:06.749Z,2.93
2019-06-15T16:34:05.547Z,1.60
2019-06-15T16:37:08.793Z,2.73
2019-06-15T16:40:19.072Z,4.33
2019-06-15T16:43:25.348Z,3.93
2019-06-15T16:46:27.906Z,2.20
2019-06-15T16:49:31.843Z,1.70
2019-06-15T16:52:36.421Z,6.80
2019-06-15T16:55:40.319Z,3.47
2019-06-15T16:58:46.610Z,2.03
2019-06-15T17:01:49.093Z,7.03
2019-06-15T17:04:52.102Z,4.80
2019-06-15T17:07:56.472Z,3.73
2019-06-15T17:10:59.664Z,4.63
2019-06-15T17:14:02.636Z,2.83
2019-06-15T17:17:06.357Z,1.63
2019-06-15T17:20:10.497Z,1.90
2019-06-15T17:23:16.223Z,1.83
2019-06-15T17:26:18.551Z,1.50
2019-06-15T17:29:21.870Z,3.97
2019-06-15T17:32:26.216Z,2.60
2019-06-15T17:35:29.448Z,7.20
2019-06-15T17:38:32.744Z,1.83
2019-06-15T17:41:36.577Z,7.03
2019-06-15T17:44:40.483Z,3.00
2019-06-15T17:47:43.423Z,4.60
2019-06-15T17:50:47.746Z,1.77
2019-06-15T17:53:51.222Z,4.17
2019-06-15T17:56:56.711Z,2.60
2019-06-15T17:59:59.059Z,2.03
2019-06-15T18:03:02.049Z,3.23
2019-06-15T18:06:05.053Z,1.90
2019-06-15T18:09:08.036Z,1.80
2019-06-15T18:12:11.560Z,3.70
2019-06-15T18:15:14.799Z,2.33
2019-06-15T18:18:17.778Z,2.17
2019-06-15T18:21:21.161Z,2.53
2019-06-15T18:24:26.450Z,2.77
2019-06-15T18:27:29.312Z,2.37
2019-06-15T18:30:33.575Z,3.13
2019-06-15T18:33:36.758Z,8.47
2019-06-15T18:36:39.727Z,1.87
2019-06-15T18:39:43.525Z,6.20
2019-06-15T18:42:46.598Z,8.40
2019-06-15T18:45:49.569Z,3.83
2019-06-15T18:48:52.683Z,2.10
2019-06-15T18:51:56.771Z,5.60
2019-06-15T18:55:01.266Z,4.20
2019-06-15T18:58:04.705Z,2.40
2019-06-15T19:01:08.210Z,3.00
2019-06-15T19:04:24.621Z,1.90
2019-06-15T19:07:16.299Z,2.00
2019-06-15T19:10:31.189Z,1.90
2019-06-15T19:13:35.995Z,9.70
2019-06-15T19:16:40.119Z,4.13
2019-06-15T19:19:43.457Z,2.40
2019-06-15T19:22:47.586Z,4.13
2019-06-15T19:25:51.060Z,6.87
2019-06-15T19:28:55.979Z,2.70
2019-06-15T19:31:59.689Z,2.93
2019-06-15T19:35:03.144Z,4.17
2019-06-15T19:38:06.722Z,2.07
2019-06-15T19:41:09.685Z,3.17
2019-06-15T19:44:12.961Z,6.13
2019-06-15T19:47:16.405Z,5.33
2019-06-15T19:50:20.073Z,5.40
2019-06-15T19:53:23.441Z,5.43
2019-06-15T19:56:26.838Z,2.67
2019-06-15T19:59:30.095Z,3.00
2019-06-15T20:02:33.073Z,13.23
2019-06-15T20:05:36.984Z,8.43
2019-06-15T20:08:40.976Z,4.27
2019-06-15T20:11:46.629Z,3.73
2019-06-15T20:14:48.883Z,8.93
2019-06-15T20:17:52.145Z,4.70
2019-06-15T20:20:56.370Z,3.90
2019-06-15T20:24:11.982Z,4.73
2019-06-15T20:27:16.504Z,4.90
2019-06-15T20:30:19.860Z,4.23
2019-06-15T20:33:25.951Z,12.33
2019-06-15T20:36:28.869Z,7.97
2019-06-15T20:39:31.878Z,4.20
2019-06-15T20:42:36.647Z,5.33
2019-06-15T20:45:40.181Z,6.20
2019-06-15T20:48:44.059Z,8.27
2019-06-15T20:51:47.111Z,3.07
2019-06-15T20:54:50.651Z,6.40
2019-06-15T20:57:53.658Z,4.93
2019-06-15T21:00:57.090Z,8.67
2019-06-15T21:04:00.420Z,2.70
2019-06-15T21:07:03.451Z,2.80
2019-06-15T21:10:08.045Z,10.60
2019-06-15T21:13:11.088Z,11.73
2019-06-15T21:16:14.497Z,5.50
2019-06-15T21:19:18.091Z,11.63
2019-06-15T21:22:21.119Z,3.47
2019-06-15T21:25:26.310Z,4.90
2019-06-15T21:28:29.102Z,5.10
2019-06-15T21:31:32.191Z,5.10
2019-06-15T21:34:40.631Z,5.00
2019-06-15T21:37:46.299Z,2.90
2019-06-15T21:40:49.175Z,4.67
2019-06-15T21:43:53.145Z,3.57
2019-06-15T21:46:56.427Z,8.30
2019-06-15T21:50:04.405Z,6.03
2019-06-15T21:53:07.347Z,2.57
2019-06-15T21:56:10.329Z,4.60
2019-06-15T21:59:13.794Z,4.20
2019-06-15T22:02:18.636Z,3.90
2019-06-15T22:05:22.046Z,4.40
2019-06-15T22:08:26.415Z,21.90
2019-06-15T22:11:29.816Z,5.90
2019-06-15T22:14:33.270Z,2.67
2019-06-15T22:17:37.077Z,3.40
2019-06-15T22:20:41.318Z,4.00
2019-06-15T22:23:47.064Z,7.30
2019-06-15T22:26:49.823Z,2.07
2019-06-15T22:29:52.789Z,3.00
2019-06-15T22:32:56.293Z,3.10
2019-06-15T22:36:00.145Z,10.37
2019-06-15T22:39:06.309Z,7.37
2019-06-15T22:42:11.449Z,4.93
2019-06-15T22:45:17.212Z,3.07
2019-06-15T22:48:20.062Z,6.63
2019-06-15T22:51:23.031Z,4.27
2019-06-15T22:54:26.229Z,2.50
2019-06-15T22:57:29.180Z,6.73
2019-06-15T23:00:33.904Z,4.80
2019-06-15T23:03:36.957Z,1.93
2019-06-15T23:06:42.945Z,2.77
2019-06-15T23:09:46.802Z,7.20
2019-06-15T23:12:49.930Z,4.20
2019-06-15T23:15:52.880Z,4.17
2019-06-15T23:19:16.985Z,4.00
2019-06-15T23:22:40.269Z,2.93
2019-06-15T23:25:43.210Z,6.47
2019-06-15T23:28:46.864Z,2.73
2019-06-15T23:31:50.502Z,7.40
2019-06-15T23:34:56.370Z,6.73
2019-06-15T23:37:58.780Z,9.37
2019-06-15T23:41:01.905Z,2.60
2019-06-15T23:44:04.840Z,4.70
2019-06-15T23:47:08.477Z,2.60
2019-06-15T23:50:11.741Z,2.50
2019-06-15T23:53:16.888Z,4.53
2019-06-15T23:56:19.826Z,4.30
2019-06-15T23:59:22.785Z,7.73
